This is the latest recevied weather packets stored in our database for station/object SP8PUB-10. If no packets are shown the sender has not sent any weather packets the latest 1 day(s).
| Time | Temp. | Humidity | Pressure | Rain* | Wind** | Luminosity | Snow |
|---|---|---|---|---|---|---|---|
| 1778042591 | 16.11° C | 57% | 1009.1 hPa | - | - | - | - |
| 1778040790 | 18.89° C | 50% | 1009.2 hPa | - | - | - | - |
| 1778038990 | 15° C | 57% | 1009.1 hPa | - | - | - | - |
| 1778038090 | 13.89° C | 58% | 1008.9 hPa | - | - | - | - |
| 1778037190 | 12.22° C | 63% | 1009.1 hPa | - | - | - | - |
| 1778036290 | 11.67° C | 64% | 1009.2 hPa | - | - | - | - |
| 1778035390 | 11.11° C | 65% | 1009.1 hPa | - | - | - | - |
| 1778034490 | 10.56° C | 68% | 1009.1 hPa | - | - | - | - |
| 1778031789 | 10.56° C | 67% | 1009.2 hPa | - | - | - | - |
| 1778030889 | 11.11° C | 67% | 1009.1 hPa | - | - | - | - |
| 1778029989 | 11.11° C | 65% | 1009.1 hPa | - | - | - | - |
| 1778029089 | 11.67° C | 64% | 1009.3 hPa | - | - | - | - |
| 1778028189 | 12.22° C | 62% | 1009.1 hPa | - | - | - | - |
| 1778027289 | 12.22° C | 62% | 1009.2 hPa | - | - | - | - |
| 1778026389 | 12.22° C | 60% | 1009.1 hPa | - | - | - | - |
| 1778015592 | 16.67° C | 49% | 1009.5 hPa | - | - | - | - |
| 1778014692 | 17.22° C | 48% | 1009.5 hPa | - | - | - | - |
| 1778013792 | 17.22° C | 48% | 1009.6 hPa | - | - | - | - |
| 1778012892 | 17.78° C | 47% | 1009.5 hPa | - | - | - | - |
| 1778011992 | 17.78° C | 47% | 1009.5 hPa | - | - | - | - |
| 1778005691 | 20.56° C | 44% | 1009.1 hPa | - | - | - | - |
| 1778004791 | 20.56° C | 43% | 1009.1 hPa | - | - | - | - |
| 1778003891 | 21.11° C | 43% | 1009 hPa | - | - | - | - |
| 1777998490 | 24.44° C | 39% | 1009.1 hPa | - | - | - | - |
| 1777997590 | 25° C | 38% | 1009.3 hPa | - | - | - | - |
* Rain since midnight (hover to see other rain measurements)
** Current wind speed in m/s (hover to see current wind gust speed)